Time;durP1;ratioP1;P1;durP2;ratioP2;P2;SDS_P1;SDS_P2;PMS_P1;PMS_P2;Temp;Humidity;BMP_temperature;BMP_pressure;BME280_temperature;BME280_humidity;BME280_pressure;Samples;Min_cycle;Max_cycle;Signal;HPM_P1;HPM_P2
2022/01/06 00:02:17;;;;;;;13.68;2.33;;;3.70;99.90;;;;;;5063851;28;20060;-66
2022/01/06 00:04:43;;;;;;;12.73;1.67;;;3.70;99.90;;;;;;5055383;28;20041;-66
2022/01/06 00:07:08;;;;;;;14.65;2.33;;;3.70;99.90;;;;;;5057169;28;20072;-66
2022/01/06 00:09:34;;;;;;;14.35;2.13;;;3.70;99.90;;;;;;5056867;28;20492;-66
2022/01/06 00:12:00;;;;;;;10.20;1.60;;;3.60;99.90;;;;;;5067835;28;20040;-66
2022/01/06 00:14:54;;;;;;;10.57;1.90;;;3.60;99.90;;;;;;5055178;28;20044;-66
2022/01/06 00:17:36;;;;;;;14.77;2.08;;;3.50;99.90;;;;;;5061363;28;20354;-66
2022/01/06 00:25:30;;;;;;;11.02;1.65;;;3.40;99.90;;;;;;5055405;28;20049;-66
2022/01/06 00:27:56;;;;;;;10.48;1.30;;;3.30;99.90;;;;;;5063562;28;20408;-66
2022/01/06 00:30:21;;;;;;;13.98;1.73;;;3.30;99.90;;;;;;5064136;28;20094;-66
2022/01/06 00:32:47;;;;;;;10.77;1.60;;;3.40;99.90;;;;;;5058447;28;20120;-66
2022/01/06 00:35:13;;;;;;;11.30;1.88;;;3.30;99.90;;;;;;5062846;28;20094;-66
2022/01/06 00:37:39;;;;;;;15.95;1.88;;;3.30;99.90;;;;;;5052398;28;20511;-66
2022/01/06 00:40:05;;;;;;;15.25;2.15;;;3.30;99.90;;;;;;5062978;28;20037;-66
2022/01/06 00:42:31;;;;;;;22.60;2.70;;;3.40;99.90;;;;;;5059203;28;20037;-66
2022/01/06 00:44:56;;;;;;;10.38;2.17;;;3.40;99.90;;;;;;5067626;28;20121;-66
2022/01/06 00:47:22;;;;;;;15.35;2.55;;;3.40;99.90;;;;;;5061038;28;20045;-66
2022/01/06 00:49:48;;;;;;;17.45;2.75;;;3.40;99.90;;;;;;5062347;28;20063;-66
2022/01/06 00:52:14;;;;;;;15.80;2.40;;;3.30;99.90;;;;;;5059667;28;20091;-66
2022/01/06 00:54:40;;;;;;;12.73;1.92;;;3.30;99.90;;;;;;5062413;28;20044;-66
2022/01/06 00:57:05;;;;;;;12.93;1.90;;;3.20;99.90;;;;;;5077088;28;20045;-66
2022/01/06 00:59:31;;;;;;;11.63;1.95;;;3.10;99.90;;;;;;5058600;28;20052;-66
2022/01/06 01:01:57;;;;;;;17.35;2.40;;;3.10;99.90;;;;;;5061651;28;20044;-66
2022/01/06 01:04:23;;;;;;;15.18;2.03;;;3.00;99.90;;;;;;5059801;28;20090;-66
2022/01/06 01:06:48;;;;;;;11.77;1.98;;;3.00;99.90;;;;;;5064351;28;20048;-66
2022/01/06 01:09:14;;;;;;;16.63;2.42;;;2.90;99.90;;;;;;5061839;28;20063;-66
2022/01/06 01:11:40;;;;;;;19.55;2.35;;;2.80;99.90;;;;;;5063559;28;20477;-66
2022/01/06 01:14:22;;;;;;;23.70;3.35;;;2.70;99.90;;;;;;5054183;28;20080;-66
2022/01/06 01:16:57;;;;;;;15.98;2.72;;;2.70;99.90;;;;;;5065609;28;20150;-66
2022/01/06 01:19:23;;;;;;;19.17;2.65;;;2.60;99.90;;;;;;5061756;28;20488;-66
2022/01/06 01:21:49;;;;;;;20.50;2.35;;;2.60;99.90;;;;;;5059390;28;20052;-66
2022/01/06 01:24:15;;;;;;;19.73;2.40;;;2.50;99.90;;;;;;5054021;28;20040;-66
2022/01/06 01:26:41;;;;;;;21.00;2.70;;;2.50;99.90;;;;;;5060688;28;20080;-66
2022/01/06 01:29:13;;;;;;;16.40;2.53;;;2.40;99.90;;;;;;5059680;28;20075;-66
2022/01/06 01:31:45;;;;;;;16.77;2.53;;;2.40;99.90;;;;;;5051652;28;20048;-66
2022/01/06 01:34:12;;;;;;;15.40;3.08;;;2.40;99.90;;;;;;5051551;28;20495;-66
2022/01/06 01:36:38;;;;;;;23.58;3.10;;;2.40;99.90;;;;;;5062763;28;20143;-66
2022/01/06 01:39:05;;;;;;;20.42;3.38;;;2.40;99.90;;;;;;5061751;28;20055;-66
2022/01/06 01:41:31;;;;;;;25.33;2.80;;;2.30;99.90;;;;;;5064564;28;20139;-66
2022/01/06 01:43:57;;;;;;;16.83;2.45;;;2.30;99.90;;;;;;5052672;28;20135;-66
2022/01/06 01:46:30;;;;;;;19.73;3.00;;;2.30;99.90;;;;;;5058034;28;20656;-66
2022/01/06 01:51:43;;;;;;;23.65;2.53;;;2.20;99.90;;;;;;5066984;28;20098;-66
2022/01/06 01:54:09;;;;;;;20.95;2.92;;;2.10;99.90;;;;;;5066634;28;21837;-66
2022/01/06 01:56:35;;;;;;;23.77;3.28;;;2.00;99.90;;;;;;5066794;28;20508;-66
2022/01/06 01:59:01;;;;;;;18.60;3.05;;;2.00;99.90;;;;;;5061331;28;20084;-66
2022/01/06 02:01:27;;;;;;;15.32;2.33;;;2.00;99.90;;;;;;5068077;28;20036;-66
2022/01/06 02:03:52;;;;;;;22.00;3.13;;;2.00;99.90;;;;;;5065296;28;20109;-66
2022/01/06 02:06:19;;;;;;;21.35;3.40;;;2.00;99.90;;;;;;5069288;28;20097;-66
2022/01/06 02:08:45;;;;;;;20.92;3.05;;;1.90;99.90;;;;;;5069511;28;20067;-66
2022/01/06 02:11:11;;;;;;;17.33;3.03;;;1.90;99.90;;;;;;5065176;28;20047;-66
2022/01/06 02:13:51;;;;;;;20.30;2.53;;;1.90;99.90;;;;;;5066805;28;20029;-66
2022/01/06 02:16:21;;;;;;;29.67;3.72;;;1.90;99.90;;;;;;5063915;28;20037;-66
2022/01/06 02:18:48;;;;;;;17.85;2.67;;;1.90;99.90;;;;;;5069539;28;20346;-66
2022/01/06 02:21:14;;;;;;;22.42;3.30;;;1.90;99.90;;;;;;5069943;28;20116;-66
2022/01/06 02:23:40;;;;;;;18.85;2.58;;;1.90;99.90;;;;;;5066645;28;20603;-66
2022/01/06 02:26:05;;;;;;;16.63;2.60;;;1.90;99.90;;;;;;5065129;28;20389;-66
2022/01/06 02:28:31;;;;;;;21.35;3.58;;;1.90;99.90;;;;;;5062206;28;20082;-66
2022/01/06 02:30:58;;;;;;;20.65;3.08;;;1.90;99.90;;;;;;5060428;28;20083;-66
2022/01/06 02:33:24;;;;;;;23.05;2.72;;;1.90;99.90;;;;;;5069182;28;20036;-66
2022/01/06 02:35:51;;;;;;;23.55;3.80;;;1.90;99.90;;;;;;5062682;28;20033;-66
2022/01/06 02:38:17;;;;;;;20.10;2.72;;;1.90;99.90;;;;;;5067659;28;20032;-66
2022/01/06 02:40:45;;;;;;;20.77;3.03;;;1.80;99.90;;;;;;5060491;28;20083;-66
2022/01/06 02:43:14;;;;;;;19.08;3.03;;;1.80;99.90;;;;;;5064300;28;20538;-66
2022/01/06 02:45:39;;;;;;;24.65;2.88;;;1.80;99.90;;;;;;5058188;28;20539;-66
2022/01/06 02:48:08;;;;;;;23.33;3.38;;;1.70;99.90;;;;;;5067069;28;20061;-66
2022/01/06 02:50:39;;;;;;;23.55;2.85;;;1.70;99.90;;;;;;5071304;28;20376;-66
2022/01/06 02:53:06;;;;;;;19.63;2.78;;;1.60;99.90;;;;;;5046169;28;20041;-66
2022/01/06 02:55:33;;;;;;;21.17;3.35;;;1.60;99.90;;;;;;5066086;28;20449;-66
2022/01/06 02:57:59;;;;;;;20.15;2.88;;;1.60;99.90;;;;;;5063852;28;20060;-66
2022/01/06 03:00:25;;;;;;;19.42;2.83;;;1.50;99.90;;;;;;5068026;28;20059;-66
2022/01/06 03:02:51;;;;;;;24.25;3.30;;;1.60;99.90;;;;;;5059830;28;20056;-66
2022/01/06 03:05:17;;;;;;;23.55;2.50;;;1.50;99.90;;;;;;5066851;28;20547;-66
2022/01/06 03:07:45;;;;;;;25.73;3.40;;;1.50;99.90;;;;;;5063221;28;20067;-66
2022/01/06 03:10:14;;;;;;;19.17;2.67;;;1.50;99.90;;;;;;5058256;28;20159;-66
2022/01/06 03:12:40;;;;;;;20.73;3.67;;;1.50;99.90;;;;;;5066236;28;20488;-66
2022/01/06 03:15:10;;;;;;;22.80;2.92;;;1.50;99.90;;;;;;5064319;28;20064;-66
2022/01/06 03:17:38;;;;;;;18.25;4.32;;;1.50;99.90;;;;;;5059862;28;20037;-66
2022/01/06 03:20:06;;;;;;;21.77;4.10;;;1.50;99.90;;;;;;5066673;28;20041;-66
2022/01/06 03:22:32;;;;;;;16.75;2.70;;;1.50;99.90;;;;;;5065507;28;20470;-66
2022/01/06 03:24:57;;;;;;;22.70;2.60;;;1.40;99.90;;;;;;5067152;28;20128;-66
2022/01/06 03:27:23;;;;;;;18.73;2.55;;;1.40;99.90;;;;;;5065822;28;20086;-66
2022/01/06 03:29:50;;;;;;;21.65;2.65;;;1.40;99.90;;;;;;5063889;28;20110;-66
2022/01/06 03:32:17;;;;;;;16.08;2.28;;;1.40;99.90;;;;;;5064090;28;20353;-66
2022/01/06 03:34:44;;;;;;;13.75;2.25;;;1.40;99.90;;;;;;5078379;28;20411;-66
2022/01/06 03:37:09;;;;;;;17.95;2.33;;;1.40;99.90;;;;;;5058388;28;20048;-66
2022/01/06 03:39:35;;;;;;;16.98;2.75;;;1.30;99.90;;;;;;5067035;28;20060;-66
2022/01/06 03:42:01;;;;;;;25.38;3.05;;;1.30;99.90;;;;;;5061358;28;20488;-66
2022/01/06 03:44:26;;;;;;;13.90;2.50;;;1.20;99.90;;;;;;5059783;28;20032;-66
2022/01/06 03:46:53;;;;;;;15.93;2.53;;;1.20;99.90;;;;;;5060585;28;20116;-66
2022/01/06 03:49:19;;;;;;;13.65;2.47;;;1.20;99.90;;;;;;5065949;28;20045;-66
2022/01/06 03:51:45;;;;;;;19.25;2.35;;;1.20;99.90;;;;;;5057456;28;20120;-66
2022/01/06 03:54:11;;;;;;;19.50;3.08;;;1.20;99.90;;;;;;5062299;28;20146;-66
2022/01/06 03:56:37;;;;;;;12.98;2.10;;;1.20;99.90;;;;;;5064411;28;20155;-66
2022/01/06 03:59:03;;;;;;;16.33;2.58;;;1.20;99.90;;;;;;5062400;28;20045;-66
2022/01/06 04:01:29;;;;;;;22.52;2.47;;;1.30;99.90;;;;;;5058342;28;20481;-66
2022/01/06 04:03:55;;;;;;;18.05;2.20;;;1.20;99.90;;;;;;5055961;28;20044;-66
2022/01/06 04:06:20;;;;;;;16.30;2.42;;;1.20;99.90;;;;;;5060721;28;20045;-66
2022/01/06 04:08:46;;;;;;;15.07;2.58;;;1.20;99.90;;;;;;5061912;28;20036;-66
2022/01/06 04:11:12;;;;;;;18.95;2.70;;;1.10;99.90;;;;;;5057130;28;20480;-66
2022/01/06 04:13:37;;;;;;;11.23;1.80;;;1.10;99.90;;;;;;5060016;28;20147;-66
2022/01/06 04:16:08;;;;;;;17.17;2.20;;;1.10;99.90;;;;;;5061031;28;20542;-66
2022/01/06 04:18:33;;;;;;;14.95;2.30;;;1.10;99.90;;;;;;5057135;28;20048;-65
2022/01/06 04:20:59;;;;;;;19.08;3.10;;;1.20;99.90;;;;;;5060205;28;20098;-65
2022/01/06 04:23:25;;;;;;;16.02;2.83;;;1.10;99.90;;;;;;5059542;28;20535;-65
2022/01/06 04:25:51;;;;;;;13.82;2.13;;;1.10;99.90;;;;;;5063745;28;20052;-65
2022/01/06 04:28:16;;;;;;;17.65;2.20;;;1.10;99.90;;;;;;5065007;28;20094;-65
2022/01/06 04:30:42;;;;;;;14.60;1.75;;;1.00;99.90;;;;;;5060235;28;20419;-65
2022/01/06 04:33:08;;;;;;;18.48;2.08;;;1.00;99.90;;;;;;5056453;28;20037;-66
2022/01/06 04:35:33;;;;;;;20.23;2.22;;;1.00;99.90;;;;;;5062571;28;20071;-65
2022/01/06 04:37:59;;;;;;;10.88;1.90;;;0.90;99.90;;;;;;5056246;28;20126;-65
2022/01/06 04:40:25;;;;;;;11.85;1.92;;;0.90;99.90;;;;;;5058424;28;20040;-65
2022/01/06 04:42:50;;;;;;;19.90;2.10;;;0.90;99.90;;;;;;5056166;28;20099;-65
2022/01/06 04:45:16;;;;;;;22.38;2.47;;;0.80;99.90;;;;;;5059697;28;20059;-65
2022/01/06 04:47:42;;;;;;;13.68;2.17;;;0.80;99.90;;;;;;5063786;28;20032;-65
2022/01/06 04:50:08;;;;;;;12.90;2.00;;;0.80;99.90;;;;;;5055092;28;20090;-65
2022/01/06 04:52:33;;;;;;;16.05;2.22;;;0.70;99.90;;;;;;5062687;28;20032;-65
2022/01/06 04:54:59;;;;;;;17.55;1.98;;;0.70;99.90;;;;;;5057960;28;20056;-66
2022/01/06 04:57:25;;;;;;;16.85;2.17;;;0.70;99.90;;;;;;5058833;28;20485;-66
2022/01/06 04:59:50;;;;;;;17.33;2.88;;;0.70;99.90;;;;;;5056981;28;20044;-65
2022/01/06 05:02:16;;;;;;;14.93;2.00;;;0.60;99.90;;;;;;5063823;28;20188;-66
2022/01/06 05:04:42;;;;;;;12.65;2.20;;;0.60;99.90;;;;;;5062352;28;20465;-65
2022/01/06 05:07:07;;;;;;;19.90;2.28;;;0.60;99.90;;;;;;5058836;28;20119;-65
2022/01/06 05:09:33;;;;;;;21.13;2.67;;;0.60;99.90;;;;;;5063925;28;20112;-65
2022/01/06 05:11:59;;;;;;;17.08;1.80;;;0.60;99.90;;;;;;5063583;28;20494;-65
2022/01/06 05:14:26;;;;;;;12.48;1.88;;;0.60;99.90;;;;;;5060929;28;20086;-66
2022/01/06 05:16:51;;;;;;;17.38;2.08;;;0.60;99.90;;;;;;5058425;28;20048;-66
2022/01/06 05:19:17;;;;;;;14.13;2.45;;;0.60;99.90;;;;;;5060311;28;20075;-66
2022/01/06 05:21:43;;;;;;;15.35;2.05;;;0.50;99.90;;;;;;5055740;28;20043;-66
2022/01/06 05:24:14;;;;;;;14.02;2.35;;;0.60;99.90;;;;;;5058948;28;20052;-66
2022/01/06 05:26:40;;;;;;;13.35;2.47;;;0.60;99.90;;;;;;5061828;28;20373;-66
2022/01/06 05:29:12;;;;;;;17.33;2.00;;;0.50;99.90;;;;;;5057178;28;20062;-66
2022/01/06 05:31:39;;;;;;;22.17;2.25;;;0.50;99.90;;;;;;5057910;28;20047;-66
2022/01/06 05:34:05;;;;;;;19.55;2.67;;;0.50;99.90;;;;;;5063990;28;20047;-66
2022/01/06 05:36:31;;;;;;;16.10;1.90;;;0.40;99.90;;;;;;5062930;28;20247;-66
2022/01/06 05:38:57;;;;;;;18.50;2.38;;;0.40;99.90;;;;;;5054464;28;20048;-66
2022/01/06 05:41:22;;;;;;;20.67;2.50;;;0.30;99.90;;;;;;5059055;28;20067;-66
2022/01/06 05:43:49;;;;;;;13.77;2.58;;;0.30;99.90;;;;;;5059937;28;20044;-66
2022/01/06 05:46:18;;;;;;;18.13;2.00;;;0.30;99.90;;;;;;5059322;28;20299;-66
2022/01/06 05:48:45;;;;;;;14.73;2.33;;;0.30;99.90;;;;;;5056690;28;20194;-66
2022/01/06 05:51:12;;;;;;;15.43;2.00;;;0.30;99.90;;;;;;5058910;28;20128;-66
2022/01/06 05:53:37;;;;;;;22.58;2.75;;;0.30;99.90;;;;;;5060178;28;20469;-66
2022/01/06 05:56:04;;;;;;;19.08;2.13;;;0.30;99.90;;;;;;5053675;28;20049;-66
2022/01/06 05:58:30;;;;;;;18.77;1.98;;;0.20;99.90;;;;;;5058238;28;20044;-66
2022/01/06 06:00:55;;;;;;;16.58;2.45;;;0.20;99.90;;;;;;5051736;28;20040;-66
2022/01/06 06:03:22;;;;;;;21.42;1.88;;;0.20;99.90;;;;;;5060717;28;20087;-67
2022/01/06 06:05:48;;;;;;;11.75;2.20;;;0.20;99.90;;;;;;5062507;28;20044;-67
2022/01/06 06:08:14;;;;;;;17.83;2.55;;;0.10;99.90;;;;;;5060980;28;20025;-67
2022/01/06 06:10:40;;;;;;;23.08;2.13;;;0.10;99.90;;;;;;5055045;28;20493;-67
2022/01/06 06:13:06;;;;;;;16.80;2.80;;;0.10;99.90;;;;;;5053934;28;20056;-66
2022/01/06 06:15:35;;;;;;;18.30;2.22;;;0.00;99.90;;;;;;5058309;28;20384;-66
2022/01/06 06:18:05;;;;;;;16.35;2.80;;;0.10;99.90;;;;;;5053538;28;20059;-66
2022/01/06 06:20:34;;;;;;;12.55;2.33;;;0.00;99.90;;;;;;5056530;28;20493;-66
2022/01/06 06:23:00;;;;;;;15.57;1.85;;;0.00;99.90;;;;;;5058062;28;20049;-66
2022/01/06 06:25:25;;;;;;;18.50;2.15;;;0.00;99.90;;;;;;5058023;28;20116;-66
2022/01/06 06:27:52;;;;;;;16.55;2.70;;;0.10;99.90;;;;;;5056246;28;20044;-66
2022/01/06 06:30:18;;;;;;;15.55;2.60;;;0.00;99.90;;;;;;5058283;28;20033;-66
2022/01/06 06:32:44;;;;;;;24.33;2.95;;;0.10;99.90;;;;;;5054401;28;20029;-66
2022/01/06 06:35:10;;;;;;;15.35;2.13;;;0.00;99.90;;;;;;5057279;28;20489;-67
2022/01/06 06:37:36;;;;;;;20.73;2.58;;;0.00;99.90;;;;;;5061908;28;20044;-64
2022/01/06 06:40:04;;;;;;;12.93;1.73;;;0.00;99.90;;;;;;5063003;28;20032;-66
2022/01/06 06:42:30;;;;;;;18.33;2.58;;;0.00;99.90;;;;;;5061915;28;20041;-66
2022/01/06 06:44:55;;;;;;;24.10;2.50;;;0.00;99.90;;;;;;5056196;28;20119;-66
2022/01/06 06:47:21;;;;;;;16.95;2.33;;;0.00;99.90;;;;;;5060111;28;20048;-66
2022/01/06 06:49:47;;;;;;;20.48;2.70;;;-0.10;99.90;;;;;;5061694;28;20102;-66
2022/01/06 06:52:13;;;;;;;18.83;2.08;;;0.00;99.90;;;;;;5062685;28;20029;-66
2022/01/06 06:54:39;;;;;;;22.45;3.53;;;0.00;99.90;;;;;;5062238;28;20421;-66
2022/01/06 06:57:05;;;;;;;20.88;2.67;;;-0.10;99.90;;;;;;5062172;28;20057;-66
2022/01/06 06:59:31;;;;;;;16.10;2.05;;;-0.10;99.90;;;;;;5058579;28;20098;-66
2022/01/06 07:01:56;;;;;;;81.90;45.58;;;-0.10;99.90;;;;;;5063045;28;20481;-66
2022/01/06 07:04:22;;;;;;;35.58;14.32;;;-0.10;99.90;;;;;;5064905;28;20044;-67
2022/01/06 07:06:48;;;;;;;21.33;5.25;;;-0.10;99.90;;;;;;5065593;28;20044;-66
2022/01/06 07:09:13;;;;;;;16.23;2.55;;;-0.10;99.90;;;;;;5060422;28;20060;-66
2022/01/06 07:11:39;;;;;;;15.38;2.85;;;-0.10;99.90;;;;;;5061448;28;20067;-66
2022/01/06 07:14:05;;;;;;;17.20;2.65;;;-0.10;99.90;;;;;;5062210;28;20532;-66
2022/01/06 07:16:31;;;;;;;18.33;2.33;;;-0.10;99.90;;;;;;5063449;28;20067;-67
2022/01/06 07:18:56;;;;;;;16.25;2.70;;;-0.10;99.90;;;;;;5059499;28;20110;-67
2022/01/06 07:21:22;;;;;;;20.60;2.53;;;-0.10;99.90;;;;;;5061074;28;20048;-67
2022/01/06 07:23:48;;;;;;;17.05;2.30;;;-0.10;99.90;;;;;;5058575;28;20579;-67
2022/01/06 07:26:13;;;;;;;16.75;2.40;;;-0.10;99.90;;;;;;5060089;28;20437;-67
2022/01/06 07:28:39;;;;;;;16.10;1.67;;;-0.20;99.90;;;;;;5062916;28;20333;-67
2022/01/06 07:31:05;;;;;;;21.40;2.63;;;-0.10;99.90;;;;;;5058761;28;20041;-67
2022/01/06 07:33:31;;;;;;;19.00;2.30;;;-0.10;99.90;;;;;;5065008;28;20025;-67
2022/01/06 07:35:57;;;;;;;19.35;2.40;;;-0.20;99.90;;;;;;5043884;28;20095;-67
2022/01/06 07:38:23;;;;;;;22.23;2.45;;;-0.20;99.90;;;;;;5038765;28;20036;-67
2022/01/06 07:40:49;;;;;;;22.42;2.97;;;-0.20;99.90;;;;;;5057805;28;20418;-67
2022/01/06 07:43:15;;;;;;;20.48;2.70;;;-0.20;99.90;;;;;;5065598;28;20173;-67
2022/01/06 07:45:41;;;;;;;15.95;2.47;;;-0.20;99.90;;;;;;5056019;28;20102;-67
2022/01/06 07:48:15;;;;;;;17.90;2.53;;;-0.20;99.90;;;;;;5055377;28;20408;-67
2022/01/06 07:50:42;;;;;;;20.80;3.40;;;-0.20;99.90;;;;;;5062491;28;20102;-67
2022/01/06 07:53:07;;;;;;;19.38;2.50;;;-0.20;99.90;;;;;;5056639;28;20049;-67
2022/01/06 07:55:34;;;;;;;13.95;2.42;;;-0.20;99.90;;;;;;5059797;28;20060;-67
2022/01/06 07:58:01;;;;;;;13.85;2.22;;;-0.20;99.90;;;;;;5056982;28;20106;-67
2022/01/06 08:00:27;;;;;;;25.55;2.40;;;-0.20;99.90;;;;;;5054502;28;20582;-67
2022/01/06 08:02:52;;;;;;;16.77;2.38;;;-0.20;99.90;;;;;;5058974;28;20049;-67
2022/01/06 08:05:22;;;;;;;16.30;2.97;;;-0.20;99.90;;;;;;5055878;28;22065;-67
2022/01/06 08:07:47;;;;;;;19.50;2.83;;;-0.10;99.90;;;;;;5054049;28;20049;-67
2022/01/06 08:10:14;;;;;;;13.18;2.33;;;-0.10;99.90;;;;;;5063094;28;20033;-67
2022/01/06 08:12:40;;;;;;;18.42;3.10;;;-0.20;99.90;;;;;;5056721;28;20039;-67
2022/01/06 08:15:06;;;;;;;17.08;2.65;;;-0.10;99.90;;;;;;5054837;28;20137;-67
2022/01/06 08:17:32;;;;;;;21.88;2.75;;;-0.10;99.90;;;;;;5060514;28;20041;-67
2022/01/06 08:19:58;;;;;;;26.40;7.85;;;0.00;99.90;;;;;;5058468;28;20048;-67
2022/01/06 08:22:24;;;;;;;53.50;24.88;;;0.00;99.90;;;;;;5058125;28;20534;-67
2022/01/06 08:24:52;;;;;;;20.02;6.00;;;0.10;99.90;;;;;;5062347;28;20140;-67
2022/01/06 08:27:18;;;;;;;24.35;5.10;;;0.10;99.90;;;;;;5058900;28;20041;-67
2022/01/06 08:29:44;;;;;;;18.17;3.75;;;0.10;99.90;;;;;;5063731;28;20483;-67
2022/01/06 08:32:10;;;;;;;11.95;2.92;;;0.20;99.90;;;;;;5058260;28;20558;-67
2022/01/06 08:34:36;;;;;;;16.98;2.53;;;0.20;99.90;;;;;;5060195;28;20098;-66
2022/01/06 08:37:02;;;;;;;13.05;2.45;;;0.20;99.90;;;;;;5059352;28;20048;-67
2022/01/06 08:39:28;;;;;;;17.13;2.95;;;0.30;99.90;;;;;;5058590;28;20052;-67
2022/01/06 08:41:54;;;;;;;19.35;2.90;;;0.30;99.90;;;;;;5056570;28;20077;-67
2022/01/06 08:44:21;;;;;;;12.23;2.63;;;0.30;99.90;;;;;;5059689;28;20106;-67
2022/01/06 08:46:48;;;;;;;19.92;2.50;;;0.40;99.90;;;;;;5059287;28;20037;-67
2022/01/06 08:49:15;;;;;;;18.58;2.83;;;0.50;99.90;;;;;;5055336;28;20048;-67
2022/01/06 08:51:41;;;;;;;10.82;2.25;;;0.50;99.90;;;;;;5055966;28;20044;-67
2022/01/06 08:54:07;;;;;;;22.33;3.17;;;0.50;99.90;;;;;;5059179;28;20044;-67
2022/01/06 08:56:34;;;;;;;25.13;3.40;;;0.60;99.90;;;;;;5055994;28;20107;-67
2022/01/06 08:59:00;;;;;;;23.25;3.10;;;0.70;99.90;;;;;;5058127;28;20050;-67
2022/01/06 09:01:25;;;;;;;12.95;3.05;;;0.70;99.90;;;;;;5058617;28;20139;-67
2022/01/06 09:03:51;;;;;;;17.20;3.35;;;0.70;99.90;;;;;;5052253;28;20106;-67
2022/01/06 09:06:17;;;;;;;40.38;18.00;;;0.70;99.90;;;;;;5055987;28;20563;-67
2022/01/06 09:08:42;;;;;;;32.40;13.95;;;0.90;99.90;;;;;;5055122;28;20048;-67
2022/01/06 09:11:08;;;;;;;22.60;5.38;;;0.90;99.90;;;;;;5057685;28;20507;-67
2022/01/06 09:13:34;;;;;;;17.80;3.70;;;1.00;99.90;;;;;;5075332;28;20046;-67
2022/01/06 09:16:00;;;;;;;17.27;3.13;;;1.10;99.90;;;;;;5056710;28;20060;-67
2022/01/06 09:18:26;;;;;;;20.65;3.38;;;1.10;99.90;;;;;;5056337;28;20044;-67
2022/01/06 09:20:52;;;;;;;18.23;2.92;;;1.10;99.90;;;;;;5056990;28;20123;-67
2022/01/06 09:23:17;;;;;;;20.50;2.95;;;1.20;99.90;;;;;;5054771;28;20564;-67
2022/01/06 09:25:43;;;;;;;16.17;3.08;;;1.30;99.90;;;;;;5058926;28;20037;-67
2022/01/06 09:28:09;;;;;;;21.58;3.80;;;1.40;99.90;;;;;;5052443;28;20140;-67
2022/01/06 09:30:36;;;;;;;19.00;3.20;;;1.40;99.90;;;;;;5060029;28;20107;-67
2022/01/06 09:33:03;;;;;;;19.13;4.90;;;1.50;99.90;;;;;;5059541;28;20047;-67
2022/01/06 09:35:29;;;;;;;17.80;3.83;;;1.60;99.90;;;;;;5059059;28;20132;-66
2022/01/06 09:37:55;;;;;;;21.05;3.78;;;1.60;99.90;;;;;;5055578;28;20119;-66
2022/01/06 09:40:21;;;;;;;20.38;3.22;;;1.70;99.90;;;;;;5057810;28;21427;-65
2022/01/06 09:42:46;;;;;;;16.17;3.17;;;1.70;99.90;;;;;;5056669;28;20032;-64
2022/01/06 09:45:12;;;;;;;15.02;2.75;;;1.80;99.90;;;;;;5057175;28;20094;-65
2022/01/06 09:47:39;;;;;;;16.08;2.55;;;1.90;99.90;;;;;;5056875;28;20458;-64
2022/01/06 09:50:08;;;;;;;18.08;2.80;;;2.00;99.90;;;;;;5053000;28;20048;-66
2022/01/06 09:52:34;;;;;;;19.70;2.65;;;2.00;99.90;;;;;;5051433;28;20472;-64
2022/01/06 09:55:03;;;;;;;22.35;3.05;;;2.10;99.90;;;;;;5058070;28;20052;-64
2022/01/06 09:57:29;;;;;;;19.25;3.10;;;2.20;99.90;;;;;;5056206;28;20047;-64
2022/01/06 09:59:55;;;;;;;18.67;3.55;;;2.20;99.90;;;;;;5055943;28;20607;-64
2022/01/06 10:02:21;;;;;;;25.40;3.47;;;2.30;99.90;;;;;;5058050;28;20131;-64
2022/01/06 10:04:59;;;;;;;25.63;4.88;;;2.40;99.90;;;;;;5056155;28;20141;-64
2022/01/06 10:07:25;;;;;;;17.10;3.08;;;2.40;99.90;;;;;;5057712;28;20084;-64
2022/01/06 10:09:50;;;;;;;17.30;3.10;;;2.50;99.90;;;;;;5055226;28;20098;-64
2022/01/06 10:12:16;;;;;;;27.48;3.45;;;2.60;99.90;;;;;;5061728;28;20036;-65
2022/01/06 10:14:49;;;;;;;19.70;2.80;;;2.60;99.90;;;;;;5041695;28;20052;-65
2022/01/06 10:17:27;;;;;;;23.20;2.92;;;2.70;99.90;;;;;;5060016;28;20059;-65
2022/01/06 10:19:54;;;;;;;19.33;2.67;;;2.80;99.90;;;;;;5059424;28;20044;-65
2022/01/06 10:22:21;;;;;;;21.27;2.80;;;2.90;99.90;;;;;;5062792;28;20086;-65
2022/01/06 10:24:49;;;;;;;18.98;3.72;;;2.90;99.90;;;;;;5057639;28;20104;-65
2022/01/06 10:27:17;;;;;;;21.48;3.03;;;3.00;99.90;;;;;;5066962;28;20397;-65
2022/01/06 10:29:48;;;;;;;14.93;2.97;;;3.10;99.90;;;;;;5046402;28;20080;-65
2022/01/06 10:32:18;;;;;;;18.60;3.03;;;3.20;99.90;;;;;;5057641;28;20691;-65
2022/01/06 10:34:55;;;;;;;18.73;2.55;;;3.20;99.90;;;;;;5061137;28;21039;-65
2022/01/06 10:37:25;;;;;;;18.60;2.78;;;3.30;99.90;;;;;;5061817;28;20055;-65
2022/01/06 10:39:55;;;;;;;18.25;2.85;;;3.30;99.90;;;;;;5060649;28;20498;-65
2022/01/06 10:42:23;;;;;;;13.20;2.58;;;3.40;99.90;;;;;;5062857;28;20033;-65
2022/01/06 10:44:57;;;;;;;18.83;2.60;;;3.50;99.90;;;;;;5062250;28;20043;-65
2022/01/06 10:47:37;;;;;;;15.73;2.00;;;3.50;99.90;;;;;;5062574;28;20501;-65
2022/01/06 10:50:14;;;;;;;15.63;2.17;;;3.50;99.90;;;;;;5060138;28;20380;-65
2022/01/06 10:52:43;;;;;;;18.05;3.03;;;3.60;99.90;;;;;;5058016;28;20055;-65
2022/01/06 10:55:17;;;;;;;13.30;2.40;;;3.60;99.90;;;;;;5056683;28;20052;-65
2022/01/06 10:57:50;;;;;;;20.25;2.53;;;3.70;99.90;;;;;;5062061;28;20044;-65
2022/01/06 11:00:17;;;;;;;17.10;2.33;;;3.70;99.90;;;;;;5058767;28;20049;-65
2022/01/06 11:02:43;;;;;;;15.18;2.05;;;3.80;99.90;;;;;;5060347;28;20048;-65
2022/01/06 11:05:09;;;;;;;15.25;2.65;;;3.80;99.90;;;;;;5061862;28;20467;-65
2022/01/06 11:07:35;;;;;;;16.13;2.25;;;3.90;99.90;;;;;;5055319;28;20182;-65
2022/01/06 11:10:05;;;;;;;16.38;2.65;;;4.00;99.90;;;;;;5060511;28;20036;-65
2022/01/06 11:12:33;;;;;;;18.48;2.90;;;4.00;99.90;;;;;;5060682;28;20368;-65
2022/01/06 11:15:00;;;;;;;21.05;2.95;;;4.10;99.90;;;;;;5060005;28;20033;-65
2022/01/06 11:17:26;;;;;;;17.70;2.50;;;4.20;99.90;;;;;;5058785;28;20093;-65
2022/01/06 11:19:52;;;;;;;18.05;2.70;;;4.20;99.90;;;;;;5059023;28;20404;-65
2022/01/06 11:22:23;;;;;;;17.40;3.13;;;4.30;99.90;;;;;;5058267;28;20049;-65
2022/01/06 11:24:59;;;;;;;20.10;2.90;;;4.30;99.90;;;;;;5061604;28;20049;-65
2022/01/06 11:27:35;;;;;;;16.27;3.13;;;4.40;99.90;;;;;;5058847;28;20060;-65
2022/01/06 11:30:15;;;;;;;19.75;3.75;;;4.40;99.90;;;;;;5062429;28;20476;-65
2022/01/06 11:32:42;;;;;;;21.80;3.33;;;4.40;99.90;;;;;;5057015;28;20128;-65
2022/01/06 11:35:16;;;;;;;18.65;3.42;;;4.40;99.90;;;;;;5061539;28;20050;-65
2022/01/06 11:37:50;;;;;;;17.38;2.80;;;4.50;99.90;;;;;;5058714;28;20041;-65
2022/01/06 11:40:31;;;;;;;14.82;2.65;;;4.50;99.90;;;;;;5059638;28;20562;-65
2022/01/06 11:42:58;;;;;;;14.75;2.67;;;4.50;99.90;;;;;;5056043;28;20052;-65
2022/01/06 11:45:24;;;;;;;13.63;3.03;;;4.60;99.90;;;;;;5060567;28;20123;-65
2022/01/06 11:48:14;;;;;;;20.02;3.13;;;4.60;99.90;;;;;;5056406;28;20507;-65
2022/01/06 11:50:50;;;;;;;15.20;3.42;;;4.60;99.90;;;;;;5060390;28;20044;-65
2022/01/06 11:53:17;;;;;;;20.67;3.33;;;4.70;99.90;;;;;;5056308;28;20101;-65
2022/01/06 11:55:45;;;;;;;22.10;3.83;;;4.70;99.90;;;;;;5057431;28;20139;-65
2022/01/06 11:58:16;;;;;;;18.63;3.97;;;4.70;99.90;;;;;;5058135;28;20041;-65
2022/01/06 12:01:01;;;;;;;21.63;3.42;;;4.80;99.90;;;;;;5058186;28;20040;-65
2022/01/06 12:03:39;;;;;;;16.58;2.88;;;4.80;99.90;;;;;;5058442;28;20036;-65
2022/01/06 12:06:06;;;;;;;15.80;2.90;;;4.90;99.90;;;;;;5058788;28;20075;-65
2022/01/06 12:08:40;;;;;;;23.73;3.40;;;4.90;99.90;;;;;;5054530;28;20094;-65
2022/01/06 12:11:23;;;;;;;16.08;3.10;;;5.00;99.90;;;;;;5046470;28;20485;-65
2022/01/06 12:13:50;;;;;;;14.60;3.13;;;5.00;99.90;;;;;;5058583;28;20032;-64
2022/01/06 12:16:27;;;;;;;20.27;2.72;;;5.00;99.90;;;;;;5056660;28;20033;-64
2022/01/06 12:18:54;;;;;;;16.20;3.10;;;5.00;99.90;;;;;;5057865;28;20043;-70
2022/01/06 12:21:20;;;;;;;24.65;3.42;;;5.10;99.90;;;;;;5054632;28;20820;-65
2022/01/06 12:23:46;;;;;;;15.63;2.85;;;5.10;99.90;;;;;;5056807;28;20036;-65
2022/01/06 12:26:13;;;;;;;14.30;2.83;;;5.10;99.90;;;;;;5058863;28;20107;-65
2022/01/06 12:28:48;;;;;;;17.75;3.08;;;5.10;99.90;;;;;;5059026;28;20477;-66
2022/01/06 12:31:27;;;;;;;12.50;2.65;;;5.10;99.90;;;;;;5055604;28;20136;-66
2022/01/06 12:33:59;;;;;;;13.00;2.55;;;5.10;99.90;;;;;;5059368;28;20035;-66
2022/01/06 12:36:30;;;;;;;12.05;2.13;;;5.20;99.90;;;;;;5060450;28;20052;-66
2022/01/06 12:38:56;;;;;;;13.50;3.00;;;5.20;99.90;;;;;;5060366;28;20044;-66
2022/01/06 12:41:32;;;;;;;17.88;2.70;;;5.20;99.90;;;;;;5059851;28;20485;-66
2022/01/06 12:43:58;;;;;;;15.68;3.25;;;5.20;99.90;;;;;;5056331;28;20076;-66
2022/01/06 12:46:34;;;;;;;17.40;3.30;;;5.30;99.90;;;;;;5063877;28;20115;-66
2022/01/06 12:49:00;;;;;;;12.23;2.75;;;5.30;99.90;;;;;;5063187;28;20139;-66
2022/01/06 12:51:30;;;;;;;20.38;2.97;;;5.20;99.90;;;;;;5051647;28;20131;-66
2022/01/06 12:54:25;;;;;;;14.10;3.65;;;5.30;99.90;;;;;;5056864;28;20070;-66
2022/01/06 12:57:02;;;;;;;20.05;3.38;;;5.20;99.90;;;;;;5045182;28;20148;-66